createdAt,value
2019-01-23T00:01:30.868Z,33.17
2019-01-23T00:04:01.368Z,38.20
2019-01-23T00:06:31.643Z,36.87
2019-01-23T00:09:01.881Z,34.10
2019-01-23T00:11:33.658Z,33.90
2019-01-23T00:14:04.200Z,38.73
2019-01-23T00:16:34.407Z,38.17
2019-01-23T00:19:04.724Z,31.13
2019-01-23T00:21:34.964Z,32.73
2019-01-23T00:24:05.480Z,34.77
2019-01-23T00:26:35.689Z,36.37
2019-01-23T00:29:06.097Z,34.10
2019-01-23T00:31:36.304Z,34.90
2019-01-23T00:34:06.602Z,33.33
2019-01-23T00:36:36.834Z,34.73
2019-01-23T00:39:08.882Z,38.73
2019-01-23T00:41:39.211Z,31.37
2019-01-23T00:44:09.500Z,36.73
2019-01-23T00:46:39.813Z,34.10
2019-01-23T00:49:10.119Z,31.17
2019-01-23T00:51:40.426Z,38.50
2019-01-23T00:54:10.910Z,33.50
2019-01-23T00:56:41.179Z,30.43
2019-01-23T00:59:11.499Z,35.00
2019-01-23T01:01:41.770Z,37.90
2019-01-23T01:04:11.932Z,36.93
2019-01-23T01:06:42.259Z,35.00
2019-01-23T01:09:12.585Z,33.70
2019-01-23T01:11:42.863Z,30.03
2019-01-23T01:14:13.198Z,31.53
2019-01-23T01:16:43.382Z,34.10
2019-01-23T01:19:14.019Z,32.47
2019-01-23T01:21:44.261Z,33.27
2019-01-23T01:24:14.406Z,33.10
2019-01-23T01:26:44.648Z,35.13
2019-01-23T01:29:14.923Z,34.50
2019-01-23T01:31:45.211Z,33.80
2019-01-23T01:34:15.454Z,25.23
2019-01-23T01:36:45.682Z,36.03
2019-01-23T01:39:15.902Z,32.90
2019-01-23T01:41:46.219Z,35.67
2019-01-23T01:44:16.491Z,31.87
2019-01-23T01:46:46.791Z,38.40
2019-01-23T01:49:17.118Z,40.40
2019-01-23T01:51:47.367Z,33.73
2019-01-23T01:54:17.679Z,33.47
2019-01-23T01:56:47.916Z,32.23
2019-01-23T01:59:18.302Z,29.50
2019-01-23T02:01:48.585Z,33.73
2019-01-23T02:04:18.799Z,34.63
2019-01-23T02:06:49.050Z,28.37
2019-01-23T02:09:19.312Z,30.90
2019-01-23T02:11:49.454Z,34.37
2019-01-23T02:14:19.809Z,32.47
2019-01-23T02:16:50.047Z,38.80
2019-01-23T02:19:20.324Z,33.10
2019-01-23T02:21:50.539Z,34.63
2019-01-23T02:24:20.855Z,32.23
2019-01-23T02:26:51.541Z,39.63
2019-01-23T02:29:21.708Z,35.10
2019-01-23T02:31:52.019Z,37.40
2019-01-23T02:34:22.287Z,36.33
2019-01-23T02:36:52.536Z,32.40
2019-01-23T02:39:22.800Z,36.07
2019-01-23T02:41:53.010Z,32.73
2019-01-23T02:44:23.223Z,36.03
2019-01-23T02:46:53.441Z,34.20
2019-01-23T02:49:23.667Z,32.87
2019-01-23T02:51:54.887Z,33.13
2019-01-23T02:54:25.050Z,38.27
2019-01-23T02:56:55.268Z,32.70
2019-01-23T02:59:25.373Z,29.13
2019-01-23T03:01:55.626Z,34.57
2019-01-23T03:04:25.887Z,33.43
2019-01-23T03:06:56.206Z,34.93
2019-01-23T03:09:26.389Z,30.57
2019-01-23T03:11:56.628Z,29.63
2019-01-23T03:14:26.864Z,33.13
2019-01-23T03:16:57.071Z,28.50
2019-01-23T03:19:27.281Z,29.57
2019-01-23T03:21:57.506Z,31.60
2019-01-23T03:24:27.751Z,32.87
2019-01-23T03:26:58.078Z,29.63
2019-01-23T03:29:28.269Z,30.47
2019-01-23T03:31:58.549Z,29.00
2019-01-23T03:34:28.818Z,31.97
2019-01-23T03:36:59.326Z,24.83
2019-01-23T03:39:29.651Z,29.13
2019-01-23T03:42:00.252Z,32.50
2019-01-23T03:44:30.475Z,29.70
2019-01-23T03:47:00.755Z,30.10
2019-01-23T03:49:31.052Z,26.97
2019-01-23T03:52:01.708Z,27.57
2019-01-23T03:54:31.955Z,27.67
2019-01-23T03:57:02.209Z,26.97
2019-01-23T03:59:32.539Z,28.63
2019-01-23T04:02:02.803Z,25.70
2019-01-23T04:04:33.051Z,30.47
2019-01-23T04:07:03.311Z,28.20
2019-01-23T04:09:33.555Z,32.03
2019-01-23T04:12:03.851Z,28.93
2019-01-23T04:14:34.043Z,27.97
2019-01-23T04:17:04.349Z,28.73
2019-01-23T04:19:34.640Z,30.53
2019-01-23T04:22:05.935Z,31.90
2019-01-23T04:24:36.090Z,28.63
2019-01-23T04:27:06.295Z,28.07
2019-01-23T04:29:39.713Z,27.47
2019-01-23T04:32:08.535Z,33.77
2019-01-23T04:34:38.716Z,28.97
2019-01-23T04:37:09.118Z,28.17
2019-01-23T04:39:39.405Z,30.33
2019-01-23T04:42:09.597Z,27.40
2019-01-23T04:44:39.781Z,31.60
2019-01-23T04:47:10.109Z,26.83
2019-01-23T04:49:40.390Z,27.57
2019-01-23T04:52:16.445Z,32.63
2019-01-23T04:54:46.775Z,27.20
2019-01-23T04:57:17.409Z,27.30
2019-01-23T04:59:47.631Z,29.17
2019-01-23T05:02:17.939Z,29.10
2019-01-23T05:04:48.243Z,29.43
2019-01-23T05:07:18.436Z,30.37
2019-01-23T05:09:48.741Z,33.00
2019-01-23T05:12:18.972Z,28.93
2019-01-23T05:14:49.596Z,34.27
2019-01-23T05:17:19.776Z,26.13
2019-01-23T05:19:50.077Z,29.90
2019-01-23T05:22:20.384Z,28.33
2019-01-23T05:24:50.694Z,28.00
2019-01-23T05:27:20.969Z,26.03
2019-01-23T05:29:54.998Z,29.80
2019-01-23T05:32:22.865Z,34.37
2019-01-23T05:34:52.938Z,29.27
2019-01-23T05:37:23.455Z,28.87
2019-01-23T05:39:53.766Z,29.90
2019-01-23T05:42:24.060Z,28.30
2019-01-23T05:44:54.256Z,26.67
2019-01-23T05:47:24.539Z,28.63
2019-01-23T05:49:57.566Z,26.87
2019-01-23T05:52:27.799Z,25.80
2019-01-23T05:54:57.984Z,28.07
2019-01-23T05:57:28.232Z,28.97
2019-01-23T06:00:02.525Z,27.77
2019-01-23T06:02:30.446Z,32.37
2019-01-23T06:05:00.618Z,31.93
2019-01-23T06:07:30.909Z,32.40
2019-01-23T06:10:01.354Z,30.63
2019-01-23T06:12:31.670Z,26.73
2019-01-23T06:15:01.812Z,27.70
2019-01-23T06:17:32.107Z,30.97
2019-01-23T06:20:02.414Z,28.47
2019-01-23T06:22:32.659Z,34.47
2019-01-23T06:25:02.923Z,28.87
2019-01-23T06:27:33.166Z,29.37
2019-01-23T06:30:10.101Z,31.80
2019-01-23T06:32:35.415Z,30.43
2019-01-23T06:35:06.079Z,30.10
2019-01-23T06:37:36.240Z,30.27
2019-01-23T06:40:07.247Z,29.80
2019-01-23T06:42:37.726Z,30.90
2019-01-23T06:45:09.875Z,32.97
2019-01-23T06:47:40.057Z,32.77
2019-01-23T06:50:13.276Z,30.10
2019-01-23T06:52:43.419Z,30.57
2019-01-23T06:55:13.757Z,30.70
2019-01-23T06:57:44.238Z,29.17
2019-01-23T07:00:17.353Z,32.33
2019-01-23T07:02:48.283Z,30.07
2019-01-23T07:05:18.852Z,31.37
2019-01-23T07:07:49.466Z,31.73
2019-01-23T07:10:21.791Z,33.07
2019-01-23T07:12:52.427Z,32.37
2019-01-23T07:15:22.652Z,31.87
2019-01-23T07:17:53.108Z,32.57
2019-01-23T07:20:24.929Z,28.97
2019-01-23T07:22:55.124Z,34.80
2019-01-23T07:25:26.408Z,28.77
2019-01-23T07:27:56.742Z,33.23
2019-01-23T07:30:32.339Z,31.27
2019-01-23T07:33:02.527Z,30.77
2019-01-23T07:35:33.051Z,29.10
2019-01-23T07:38:03.222Z,30.43
2019-01-23T07:40:33.497Z,33.83
2019-01-23T07:43:03.876Z,35.47
2019-01-23T07:45:34.472Z,35.07
2019-01-23T07:48:04.938Z,30.37
2019-01-23T07:50:35.186Z,35.43
2019-01-23T07:53:05.954Z,32.83
2019-01-23T07:55:36.208Z,33.67
2019-01-23T07:58:06.509Z,33.47
2019-01-23T08:00:36.945Z,36.67
2019-01-23T08:03:07.254Z,38.10
2019-01-23T08:05:37.517Z,33.90
2019-01-23T08:08:07.879Z,31.33
2019-01-23T08:10:38.420Z,36.43
2019-01-23T08:13:08.592Z,38.43
2019-01-23T08:15:38.807Z,32.63
2019-01-23T08:18:09.111Z,39.70
2019-01-23T08:20:39.256Z,36.53
2019-01-23T08:23:09.493Z,34.67
2019-01-23T08:25:39.730Z,36.13
2019-01-23T08:28:10.453Z,33.43
2019-01-23T08:30:40.961Z,33.00
2019-01-23T08:33:11.304Z,32.17
2019-01-23T08:35:41.502Z,33.27
2019-01-23T08:38:11.785Z,34.80
2019-01-23T08:40:42.207Z,34.33
2019-01-23T08:43:12.450Z,30.97
2019-01-23T08:45:42.548Z,33.13
2019-01-23T08:48:12.815Z,31.50
2019-01-23T08:50:44.438Z,34.30
2019-01-23T08:53:14.792Z,36.57
2019-01-23T08:55:45.046Z,32.90
2019-01-23T08:58:15.351Z,32.83
2019-01-23T09:00:46.212Z,36.20
2019-01-23T09:03:16.458Z,33.13
2019-01-23T09:05:46.732Z,31.30
2019-01-23T09:08:16.933Z,32.53
2019-01-23T09:10:47.283Z,35.97
2019-01-23T09:13:17.594Z,35.47
2019-01-23T09:15:47.827Z,33.43
2019-01-23T09:18:18.102Z,35.33
2019-01-23T09:20:48.428Z,35.93
2019-01-23T09:23:18.702Z,33.00
2019-01-23T09:25:50.111Z,30.57
2019-01-23T09:28:21.151Z,35.10
2019-01-23T09:31:29.539Z,32.40
2019-01-23T09:34:42.418Z,31.67
2019-01-23T09:37:36.045Z,30.67
2019-01-23T09:40:44.012Z,32.23
2019-01-23T09:44:16.362Z,33.37
2019-01-23T09:46:58.205Z,34.40
2019-01-23T09:49:44.865Z,36.50
2019-01-23T09:52:49.502Z,32.83
2019-01-23T09:55:19.695Z,35.03
2019-01-23T09:58:10.738Z,30.70
2019-01-23T10:00:40.988Z,31.07
2019-01-23T10:03:11.331Z,35.80
2019-01-23T10:05:41.615Z,36.70
2019-01-23T10:08:11.885Z,33.90
2019-01-23T10:10:42.107Z,35.83
2019-01-23T10:13:12.441Z,35.13
2019-01-23T10:15:48.802Z,30.70
2019-01-23T10:18:19.071Z,32.03
2019-01-23T10:20:49.231Z,32.73
2019-01-23T10:23:19.566Z,28.43
2019-01-23T10:25:49.822Z,30.40
2019-01-23T10:28:20.083Z,29.37
2019-01-23T10:30:50.304Z,31.80
2019-01-23T10:33:20.590Z,28.90
2019-01-23T10:35:51.105Z,35.70
2019-01-23T10:38:21.453Z,29.20
2019-01-23T10:40:51.711Z,27.63
2019-01-23T10:43:22.053Z,32.07
2019-01-23T10:45:52.261Z,32.57
2019-01-23T10:48:22.537Z,31.00
2019-01-23T10:50:52.829Z,29.03
2019-01-23T10:53:24.119Z,29.03
2019-01-23T10:55:54.390Z,30.50
2019-01-23T10:58:24.744Z,32.07
2019-01-23T11:00:55.059Z,29.97
2019-01-23T11:03:25.311Z,27.47
2019-01-23T11:05:55.554Z,31.40
2019-01-23T11:08:25.883Z,29.03
2019-01-23T11:10:56.355Z,37.73
2019-01-23T11:13:26.571Z,34.33
2019-01-23T11:15:57.688Z,33.23
2019-01-23T11:18:27.974Z,33.50
2019-01-23T11:20:59.099Z,38.30
2019-01-23T11:23:29.484Z,32.73
2019-01-23T11:25:59.714Z,32.30
2019-01-23T11:28:29.971Z,35.53
2019-01-23T11:31:00.247Z,35.97
2019-01-23T11:33:30.467Z,38.23
2019-01-23T11:36:00.751Z,35.77
2019-01-23T11:38:31.100Z,38.37
2019-01-23T11:41:01.343Z,37.43
2019-01-23T11:43:31.622Z,35.40
2019-01-23T11:46:01.997Z,36.87
2019-01-23T11:48:32.549Z,36.43
2019-01-23T11:51:03.183Z,35.03
2019-01-23T11:53:33.648Z,36.80
2019-01-23T11:56:03.886Z,33.23
2019-01-23T11:58:34.064Z,31.60
2019-01-23T12:01:04.642Z,44.23
2019-01-23T12:03:35.164Z,37.73
2019-01-23T12:06:05.390Z,32.77
2019-01-23T12:08:35.758Z,32.90
2019-01-23T12:11:05.971Z,39.40
2019-01-23T12:13:36.247Z,33.67
2019-01-23T12:16:06.527Z,34.03
2019-01-23T12:18:36.972Z,31.00
2019-01-23T12:21:07.218Z,38.60
2019-01-23T12:23:38.041Z,38.40
2019-01-23T12:26:08.264Z,32.37
2019-01-23T12:28:38.785Z,37.97
2019-01-23T12:31:08.966Z,39.70
2019-01-23T12:33:39.147Z,38.17
2019-01-23T12:36:09.303Z,36.53
2019-01-23T12:38:39.481Z,37.07
2019-01-23T12:41:09.794Z,36.93
2019-01-23T12:43:39.993Z,43.90
2019-01-23T12:46:10.255Z,38.97
2019-01-23T12:48:41.010Z,39.87
2019-01-23T12:51:11.194Z,39.87
2019-01-23T12:53:41.515Z,38.70
2019-01-23T12:56:11.783Z,40.43
2019-01-23T12:58:42.318Z,36.33
2019-01-23T13:01:12.636Z,43.87
2019-01-23T13:03:43.821Z,39.50
2019-01-23T13:06:14.039Z,39.47
2019-01-23T13:08:44.732Z,47.13
2019-01-23T13:11:14.980Z,41.43
2019-01-23T13:13:45.214Z,40.90
2019-01-23T13:16:15.340Z,36.57
2019-01-23T13:18:45.633Z,38.90
2019-01-23T13:21:15.798Z,38.60
2019-01-23T13:23:46.060Z,41.20
2019-01-23T13:26:16.230Z,38.37
2019-01-23T13:28:46.475Z,38.60
2019-01-23T13:31:16.786Z,37.80
2019-01-23T13:33:47.056Z,35.90
2019-01-23T13:36:17.342Z,42.77
2019-01-23T13:38:47.469Z,35.43
2019-01-23T13:41:18.127Z,34.97
2019-01-23T13:43:48.354Z,38.20
2019-01-23T13:46:18.547Z,37.03
2019-01-23T13:48:48.729Z,35.67
2019-01-23T13:51:19.046Z,42.30
2019-01-23T13:53:49.262Z,29.63
2019-01-23T13:56:19.538Z,30.80
2019-01-23T13:58:49.823Z,30.33
2019-01-23T14:01:20.120Z,27.27
2019-01-23T14:03:50.383Z,31.10
2019-01-23T14:06:20.540Z,26.70
2019-01-23T14:08:50.860Z,26.73
2019-01-23T14:11:21.101Z,28.70
2019-01-23T14:13:51.397Z,30.10
2019-01-23T14:16:21.662Z,31.90
2019-01-23T14:18:51.997Z,29.97
2019-01-23T14:21:22.352Z,31.53
2019-01-23T14:23:52.641Z,30.00
2019-01-23T14:26:22.962Z,33.43
2019-01-23T14:28:53.211Z,28.33
2019-01-23T14:31:23.531Z,36.20
2019-01-23T14:33:53.736Z,27.80
2019-01-23T14:36:23.959Z,28.97
2019-01-23T14:38:54.206Z,28.20
2019-01-23T14:41:24.775Z,31.57
2019-01-23T14:43:54.980Z,27.67
2019-01-23T14:46:25.234Z,29.97
2019-01-23T14:48:55.424Z,27.70
2019-01-23T14:51:25.744Z,32.10
2019-01-23T14:53:56.007Z,27.13
2019-01-23T14:56:26.297Z,27.53
2019-01-23T14:58:56.515Z,23.30
2019-01-23T15:01:26.775Z,26.77
2019-01-23T15:03:57.240Z,23.23
2019-01-23T15:06:27.493Z,24.57
2019-01-23T15:08:57.742Z,22.97
2019-01-23T15:11:28.101Z,22.87
2019-01-23T15:13:58.381Z,23.97
2019-01-23T15:16:28.558Z,23.90
2019-01-23T15:18:58.708Z,29.57
2019-01-23T15:21:28.904Z,25.73
2019-01-23T15:24:00.043Z,28.67
2019-01-23T15:26:30.425Z,30.17
2019-01-23T15:29:01.016Z,30.63
2019-01-23T15:31:31.375Z,33.53
2019-01-23T15:34:01.559Z,37.97
2019-01-23T15:36:31.816Z,34.73
2019-01-23T15:39:02.129Z,34.33
2019-01-23T15:41:34.015Z,32.23
2019-01-23T15:44:04.296Z,38.13
2019-01-23T15:46:34.653Z,37.47
2019-01-23T15:49:04.975Z,33.90
2019-01-23T15:51:35.240Z,33.97
2019-01-23T15:54:05.507Z,34.13
2019-01-23T15:56:35.774Z,36.33
2019-01-23T15:59:06.052Z,32.77
2019-01-23T16:01:36.343Z,36.87
2019-01-23T16:04:06.566Z,36.03
2019-01-23T16:06:36.804Z,32.33
2019-01-23T16:09:07.681Z,30.57
2019-01-23T16:11:38.315Z,36.93
2019-01-23T16:14:08.609Z,31.97
2019-01-23T16:16:39.242Z,30.07
2019-01-23T16:19:09.816Z,35.77
2019-01-23T16:21:45.543Z,33.90
2019-01-23T16:24:12.043Z,37.63
2019-01-23T16:26:43.000Z,33.20
2019-01-23T16:29:13.800Z,31.63
2019-01-23T16:31:44.131Z,33.40
2019-01-23T16:34:14.384Z,34.70
2019-01-23T16:36:44.666Z,32.00
2019-01-23T16:39:14.912Z,35.00
2019-01-23T16:41:45.141Z,36.80
2019-01-23T16:44:15.262Z,33.73
2019-01-23T16:46:45.584Z,35.87
2019-01-23T16:49:15.850Z,33.47
2019-01-23T16:51:51.308Z,34.53
2019-01-23T16:54:18.139Z,39.60
2019-01-23T16:56:48.743Z,31.80
2019-01-23T16:59:19.044Z,37.00
2019-01-23T17:01:49.263Z,36.10
2019-01-23T17:04:19.616Z,33.50
2019-01-23T17:06:50.155Z,34.93
2019-01-23T17:09:20.360Z,36.73
2019-01-23T17:11:50.615Z,38.77
2019-01-23T17:14:20.894Z,44.23
2019-01-23T17:16:51.475Z,38.70
2019-01-23T17:19:21.752Z,39.73
2019-01-23T17:21:51.991Z,37.87
2019-01-23T17:24:22.267Z,39.63
2019-01-23T17:26:52.590Z,35.47
2019-01-23T17:29:30.439Z,41.27
2019-01-23T17:31:56.014Z,31.33
2019-01-23T17:34:26.155Z,36.70
2019-01-23T17:36:56.518Z,43.80
2019-01-23T17:39:27.020Z,39.30
2019-01-23T17:41:57.403Z,37.90
2019-01-23T17:44:27.849Z,36.60
2019-01-23T17:46:58.077Z,38.03
2019-01-23T17:49:28.360Z,39.60
2019-01-23T17:51:59.051Z,38.67
2019-01-23T17:54:29.359Z,40.00
2019-01-23T17:56:59.706Z,39.50
2019-01-23T17:59:30.365Z,35.33
2019-01-23T18:02:00.797Z,38.83
2019-01-23T18:04:31.101Z,33.50
2019-01-23T18:07:01.400Z,35.30
2019-01-23T18:09:31.575Z,38.83
2019-01-23T18:12:01.879Z,39.23
2019-01-23T18:14:32.182Z,39.17
2019-01-23T18:17:02.403Z,38.93
2019-01-23T18:19:32.684Z,36.33
2019-01-23T18:22:02.934Z,40.10
2019-01-23T18:24:33.163Z,37.30
2019-01-23T18:27:03.704Z,36.50
2019-01-23T18:29:34.070Z,40.97
2019-01-23T18:32:07.654Z,43.03
2019-01-23T18:35:32.915Z,40.57
2019-01-23T18:38:19.780Z,40.77
2019-01-23T18:41:20.903Z,37.67
2019-01-23T18:44:31.396Z,40.73
2019-01-23T18:47:57.653Z,39.30
2019-01-23T18:51:06.117Z,37.77
2019-01-23T18:53:36.449Z,47.00
2019-01-23T18:56:07.784Z,40.00
2019-01-23T18:58:38.075Z,43.60
2019-01-23T19:01:08.746Z,45.73
2019-01-23T19:03:39.083Z,48.83
2019-01-23T19:06:09.510Z,47.40
2019-01-23T19:08:39.845Z,47.80
2019-01-23T19:11:10.287Z,45.13
2019-01-23T19:13:40.619Z,48.53
2019-01-23T19:16:11.276Z,41.63
2019-01-23T19:18:41.598Z,45.07
2019-01-23T19:21:12.283Z,45.83
2019-01-23T19:23:42.568Z,41.40
2019-01-23T19:26:13.205Z,45.57
2019-01-23T19:28:43.505Z,40.23
2019-01-23T19:31:13.971Z,44.43
2019-01-23T19:33:44.268Z,47.87
2019-01-23T19:36:14.643Z,43.87
2019-01-23T19:38:45.259Z,41.73
2019-01-23T19:41:20.281Z,47.00
2019-01-23T19:43:47.611Z,47.20
2019-01-23T19:46:17.990Z,45.50
2019-01-23T19:48:48.289Z,45.87
2019-01-23T19:51:18.850Z,41.43
2019-01-23T19:53:49.225Z,46.67
2019-01-23T19:56:19.610Z,47.00
2019-01-23T19:58:50.096Z,46.57
2019-01-23T20:01:20.779Z,41.60
2019-01-23T20:03:51.113Z,47.53
2019-01-23T20:06:21.812Z,44.40
2019-01-23T20:08:52.784Z,46.20
2019-01-23T20:11:23.030Z,46.50
2019-01-23T20:13:53.412Z,46.17
2019-01-23T20:16:23.818Z,46.87
2019-01-23T20:18:55.007Z,44.73
2019-01-23T20:21:25.427Z,44.60
2019-01-23T20:23:55.663Z,47.73
2019-01-23T20:26:26.358Z,46.20
2019-01-23T20:28:56.709Z,45.83
2019-01-23T20:31:27.163Z,49.73
2019-01-23T20:33:57.384Z,50.03
2019-01-23T20:36:27.757Z,54.50
2019-01-23T20:38:58.087Z,48.87
2019-01-23T20:41:28.439Z,46.03
2019-01-23T20:43:58.806Z,45.27
2019-01-23T20:46:29.780Z,46.57
2019-01-23T20:49:00.186Z,48.50
2019-01-23T20:51:30.480Z,45.70
2019-01-23T20:54:00.808Z,44.70
2019-01-23T20:56:31.206Z,45.67
2019-01-23T20:59:01.627Z,42.87
2019-01-23T21:01:31.995Z,46.50
2019-01-23T21:04:02.614Z,42.87
2019-01-23T21:06:32.880Z,38.40
2019-01-23T21:09:03.627Z,37.60
2019-01-23T21:11:34.881Z,44.27
2019-01-23T21:14:05.232Z,41.47
2019-01-23T21:16:35.552Z,43.33
2019-01-23T21:19:06.099Z,41.07
2019-01-23T21:21:36.387Z,41.73
2019-01-23T21:24:06.998Z,38.33
2019-01-23T21:26:37.688Z,38.67
2019-01-23T21:29:07.993Z,40.50
2019-01-23T21:31:38.379Z,43.97
2019-01-23T21:34:08.665Z,43.73
2019-01-23T21:36:39.352Z,48.27
2019-01-23T21:39:10.433Z,38.33
2019-01-23T21:41:40.929Z,42.53
2019-01-23T21:44:11.588Z,39.40
2019-01-23T21:46:41.877Z,37.57
2019-01-23T21:49:12.219Z,43.73
2019-01-23T21:51:42.534Z,40.13
2019-01-23T21:54:12.781Z,37.57
2019-01-23T21:56:44.078Z,43.67
2019-01-23T21:59:14.447Z,38.73
2019-01-23T22:01:44.687Z,38.20
2019-01-23T22:04:14.989Z,38.67
2019-01-23T22:06:45.596Z,39.10
2019-01-23T22:09:15.941Z,43.97
2019-01-23T22:11:46.265Z,43.47
2019-01-23T22:14:16.914Z,42.37
2019-01-23T22:16:47.118Z,41.63
2019-01-23T22:19:17.426Z,43.67
2019-01-23T22:21:47.591Z,42.80
2019-01-23T22:24:17.806Z,39.60
2019-01-23T22:26:48.168Z,37.97
2019-01-23T22:29:18.542Z,39.37
2019-01-23T22:31:48.831Z,43.67
2019-01-23T22:34:19.055Z,39.97
2019-01-23T22:36:49.336Z,44.07
2019-01-23T22:39:19.730Z,38.30
2019-01-23T22:41:49.951Z,38.23
2019-01-23T22:44:20.205Z,41.03
2019-01-23T22:46:50.387Z,40.93
2019-01-23T22:49:20.660Z,43.30
2019-01-23T22:51:51.178Z,39.73
2019-01-23T22:54:21.559Z,42.87
2019-01-23T22:56:52.519Z,46.70
2019-01-23T22:59:23.126Z,47.57
2019-01-23T23:01:53.402Z,48.40
2019-01-23T23:04:23.721Z,50.50
2019-01-23T23:06:53.938Z,46.70
2019-01-23T23:09:24.258Z,46.73
2019-01-23T23:11:54.563Z,46.30
2019-01-23T23:14:24.749Z,46.40
2019-01-23T23:16:54.907Z,43.07
2019-01-23T23:19:25.262Z,38.27
2019-01-23T23:21:55.886Z,41.53
2019-01-23T23:24:26.222Z,40.80
2019-01-23T23:26:56.547Z,41.90
2019-01-23T23:29:26.936Z,42.17
2019-01-23T23:31:57.150Z,40.80
2019-01-23T23:34:27.459Z,47.97
2019-01-23T23:36:57.685Z,47.70
2019-01-23T23:39:27.898Z,50.10
2019-01-23T23:41:58.119Z,43.77
2019-01-23T23:44:28.361Z,45.33
2019-01-23T23:46:59.015Z,47.60
2019-01-23T23:49:29.247Z,45.10
2019-01-23T23:51:59.718Z,46.90
2019-01-23T23:54:30.009Z,45.63
2019-01-23T23:57:00.397Z,41.87
2019-01-23T23:59:30.699Z,47.77
